Time;durP1;ratioP1;P1;durP2;ratioP2;P2;SDS_P1;SDS_P2;PMS_P1;PMS_P2;Temp;Humidity;BMP_temperature;BMP_pressure;BME280_temperature;BME280_humidity;BME280_pressure;Samples;Min_cycle;Max_cycle;Signal;HPM_P1;HPM_P2
2022/03/18 00:02:04;;;;;;;15.05;10.68;;;9.20;99.90;;;;;;4996802;28;20499;-75
2022/03/18 00:04:30;;;;;;;12.00;10.32;;;9.20;99.90;;;;;;4994952;28;20034;-75
2022/03/18 00:06:55;;;;;;;11.52;10.20;;;9.20;99.90;;;;;;4995239;28;20069;-75
2022/03/18 00:09:21;;;;;;;11.30;10.23;;;9.20;99.90;;;;;;4993400;28;20473;-74
2022/03/18 00:11:47;;;;;;;14.55;10.82;;;9.20;99.90;;;;;;4990373;28;20027;-73
2022/03/18 00:14:14;;;;;;;12.93;10.73;;;9.20;99.90;;;;;;4993212;28;20027;-74
2022/03/18 00:16:40;;;;;;;11.60;10.48;;;9.20;99.90;;;;;;4995858;28;20030;-74
2022/03/18 00:19:06;;;;;;;12.05;10.88;;;9.20;99.90;;;;;;4994803;28;20069;-74
2022/03/18 00:21:34;;;;;;;12.20;10.93;;;9.20;99.90;;;;;;4994621;28;20030;-74
2022/03/18 00:24:00;;;;;;;14.85;11.43;;;9.10;99.90;;;;;;4992118;28;20034;-73
2022/03/18 00:26:26;;;;;;;13.90;10.85;;;9.10;99.90;;;;;;4991496;28;20428;-71
2022/03/18 00:28:52;;;;;;;12.75;11.07;;;9.10;99.90;;;;;;4996793;28;20022;-73
2022/03/18 00:31:17;;;;;;;13.05;11.18;;;9.10;99.90;;;;;;4994950;28;20381;-74
2022/03/18 00:33:43;;;;;;;13.23;11.85;;;9.20;99.90;;;;;;4993381;28;20073;-74
2022/03/18 00:36:09;;;;;;;14.30;11.65;;;9.10;99.90;;;;;;4994664;28;20087;-73
2022/03/18 00:38:35;;;;;;;15.30;13.70;;;9.10;99.90;;;;;;4990051;28;20014;-73
2022/03/18 00:41:01;;;;;;;14.13;12.38;;;9.10;99.90;;;;;;4996528;28;20055;-74
2022/03/18 00:43:27;;;;;;;14.10;12.63;;;9.10;99.90;;;;;;4994367;28;20491;-73
2022/03/18 00:45:53;;;;;;;14.40;12.27;;;9.00;99.90;;;;;;4994406;28;20029;-73
2022/03/18 00:53:46;;;;;;;;;;;9.00;99.90;;;;;;4981927;28;20040;-74
2022/03/18 00:56:12;;;;;;;14.75;13.25;;;9.00;99.90;;;;;;4998213;28;20000;-73
2022/03/18 00:58:38;;;;;;;17.02;13.73;;;9.00;99.90;;;;;;4999053;28;20030;-74
2022/03/18 01:01:04;;;;;;;14.88;13.50;;;9.00;99.90;;;;;;4998226;28;20153;-73
2022/03/18 01:03:30;;;;;;;16.52;15.02;;;9.00;99.90;;;;;;4996908;28;20105;-74
2022/03/18 01:05:55;;;;;;;16.48;13.82;;;8.90;99.90;;;;;;4996314;28;20407;-74
2022/03/18 01:08:21;;;;;;;19.02;16.95;;;8.90;99.90;;;;;;4995162;28;20023;-74
2022/03/18 01:10:48;;;;;;;18.00;14.20;;;8.90;99.90;;;;;;4999811;28;20069;-74
2022/03/18 01:13:14;;;;;;;16.00;14.43;;;8.90;99.90;;;;;;4996385;28;20038;-74
2022/03/18 01:15:40;;;;;;;16.92;15.23;;;8.90;99.90;;;;;;4997869;28;20407;-74
2022/03/18 01:18:09;;;;;;;16.63;14.88;;;8.90;99.90;;;;;;4997792;28;20025;-74
2022/03/18 01:20:34;;;;;;;17.67;15.20;;;8.90;99.90;;;;;;4977962;28;20023;-73
2022/03/18 01:23:03;;;;;;;15.30;13.80;;;8.90;99.90;;;;;;4999417;28;20022;-74
2022/03/18 01:25:28;;;;;;;16.17;14.57;;;8.80;99.90;;;;;;4997532;28;20027;-74
2022/03/18 01:27:54;;;;;;;15.82;14.30;;;8.80;99.90;;;;;;4996302;28;20026;-74
2022/03/18 01:30:20;;;;;;;18.35;16.55;;;8.80;99.90;;;;;;4996215;28;20545;-75
2022/03/18 01:32:46;;;;;;;18.48;15.43;;;8.80;99.90;;;;;;4993097;28;20085;-75
2022/03/18 01:35:11;;;;;;;19.15;17.15;;;8.80;99.90;;;;;;4997034;28;20035;-75
2022/03/18 01:37:37;;;;;;;18.08;15.07;;;8.80;99.90;;;;;;4998248;28;20033;-75
2022/03/18 01:40:04;;;;;;;15.85;14.35;;;8.80;99.90;;;;;;4996254;28;20483;-75
2022/03/18 01:42:29;;;;;;;16.98;15.32;;;8.80;99.90;;;;;;4995527;28;20407;-74
2022/03/18 01:44:57;;;;;;;17.75;15.93;;;8.80;99.90;;;;;;4995480;28;20258;-74
2022/03/18 01:47:23;;;;;;;16.98;15.48;;;8.80;99.90;;;;;;4994797;28;20030;-74
2022/03/18 01:49:49;;;;;;;17.33;15.52;;;8.80;99.90;;;;;;4998947;28;20045;-74
2022/03/18 01:52:15;;;;;;;19.25;17.23;;;8.80;99.90;;;;;;4995765;28;20057;-73
2022/03/18 01:54:49;;;;;;;17.17;15.43;;;8.80;99.90;;;;;;4997272;28;20522;-74
2022/03/18 01:57:21;;;;;;;17.25;15.20;;;8.80;99.90;;;;;;4997067;28;20038;-74
2022/03/18 01:59:48;;;;;;;18.05;16.15;;;8.80;99.90;;;;;;4993931;28;20022;-74
2022/03/18 02:02:15;;;;;;;57.25;40.90;;;8.80;99.90;;;;;;4995372;28;20034;-74
2022/03/18 02:04:41;;;;;;;18.10;15.15;;;8.80;99.90;;;;;;4997507;28;20035;-74
2022/03/18 02:07:09;;;;;;;17.45;15.65;;;8.80;99.90;;;;;;4997128;28;20408;-73
2022/03/18 02:09:36;;;;;;;17.80;15.98;;;8.70;99.90;;;;;;4994904;28;20034;-74
2022/03/18 02:12:03;;;;;;;21.00;16.73;;;8.70;99.90;;;;;;4996191;28;20113;-74
2022/03/18 02:14:46;;;;;;;18.17;16.17;;;8.70;99.90;;;;;;4993142;28;20571;-74
2022/03/18 02:17:15;;;;;;;19.30;17.30;;;8.70;99.90;;;;;;5006666;28;20053;-74
2022/03/18 02:19:42;;;;;;;18.75;16.80;;;8.70;99.90;;;;;;4997710;28;20073;-74
2022/03/18 02:22:14;;;;;;;20.45;17.35;;;8.60;99.90;;;;;;4995190;28;20499;-73
2022/03/18 02:24:45;;;;;;;21.38;19.13;;;8.70;99.90;;;;;;4995808;28;20125;-74
2022/03/18 02:27:12;;;;;;;20.20;18.20;;;8.60;99.90;;;;;;4996677;28;20445;-74
2022/03/18 02:29:38;;;;;;;19.70;17.70;;;8.70;99.90;;;;;;4990928;28;20065;-74
2022/03/18 02:32:05;;;;;;;20.80;18.70;;;8.60;99.90;;;;;;4998617;28;20069;-74
2022/03/18 02:34:32;;;;;;;19.55;17.55;;;8.60;99.90;;;;;;4995866;28;20034;-74
2022/03/18 02:36:58;;;;;;;19.33;17.48;;;8.60;99.90;;;;;;4996076;28;20034;-74
2022/03/18 02:39:24;;;;;;;34.05;27.98;;;8.60;99.90;;;;;;4996201;28;20398;-75
2022/03/18 02:41:49;;;;;;;21.75;18.05;;;8.70;99.90;;;;;;4993692;28;20049;-74
2022/03/18 02:44:15;;;;;;;28.02;23.85;;;8.60;99.90;;;;;;4995356;28;20042;-74
2022/03/18 02:46:41;;;;;;;21.85;19.65;;;8.60;99.90;;;;;;4997189;28;20783;-74
2022/03/18 02:49:07;;;;;;;22.00;19.65;;;8.50;99.90;;;;;;4994495;28;20029;-75
2022/03/18 02:51:36;;;;;;;20.90;18.80;;;8.60;99.90;;;;;;4995843;28;20096;-75
2022/03/18 02:54:02;;;;;;;22.48;20.08;;;8.50;99.90;;;;;;4994837;28;20350;-75
2022/03/18 02:56:28;;;;;;;25.48;22.75;;;8.50;99.90;;;;;;4994066;28;20065;-74
2022/03/18 02:58:53;;;;;;;21.58;19.40;;;8.40;99.90;;;;;;4997937;28;20058;-74
2022/03/18 03:01:20;;;;;;;22.27;19.95;;;8.40;99.90;;;;;;4994445;28;20542;-74
2022/03/18 03:03:45;;;;;;;20.70;18.60;;;8.40;99.90;;;;;;4995288;28;20046;-75
2022/03/18 03:08:55;;;;;;;21.10;19.00;;;8.40;99.90;;;;;;4992705;28;20034;-74
2022/03/18 03:11:22;;;;;;;27.13;23.67;;;8.40;99.90;;;;;;4993510;28;20034;-74
2022/03/18 03:13:49;;;;;;;24.85;21.60;;;8.40;99.90;;;;;;4995232;28;20034;-74
2022/03/18 03:16:15;;;;;;;24.38;20.85;;;8.40;99.90;;;;;;4995604;28;20022;-74
2022/03/18 03:18:41;;;;;;;24.75;20.48;;;8.40;99.90;;;;;;4994970;28;20045;-74
2022/03/18 03:21:07;;;;;;;23.02;20.83;;;8.40;99.90;;;;;;4994881;28;20032;-74
2022/03/18 03:23:32;;;;;;;22.27;19.95;;;8.20;99.90;;;;;;4991268;28;20030;-74
2022/03/18 03:25:58;;;;;;;23.05;20.52;;;8.40;99.90;;;;;;4998004;28;20054;-74
2022/03/18 03:28:24;;;;;;;23.85;20.83;;;8.30;99.90;;;;;;4992518;28;20040;-73
2022/03/18 03:30:50;;;;;;;26.83;23.83;;;8.30;99.90;;;;;;4995162;28;20027;-74
2022/03/18 03:33:16;;;;;;;21.60;19.33;;;8.30;99.90;;;;;;4994941;28;20491;-74
2022/03/18 03:35:43;;;;;;;22.80;20.40;;;8.20;99.90;;;;;;4991453;28;20041;-74
2022/03/18 03:38:15;;;;;;;24.23;20.25;;;8.20;99.90;;;;;;4996029;28;20120;-74
2022/03/18 03:40:43;;;;;;;22.80;20.50;;;8.20;99.90;;;;;;4995032;28;20077;-74
2022/03/18 03:43:09;;;;;;;25.83;23.02;;;8.20;99.90;;;;;;4994883;28;20030;-74
2022/03/18 03:45:38;;;;;;;23.10;20.75;;;8.20;99.90;;;;;;4995467;28;20030;-73
2022/03/18 03:48:05;;;;;;;23.02;20.33;;;8.10;99.90;;;;;;4993106;28;20022;-74
2022/03/18 03:50:31;;;;;;;23.05;20.67;;;8.10;99.90;;;;;;4991203;28;20030;-74
2022/03/18 03:52:57;;;;;;;22.42;20.17;;;8.10;99.90;;;;;;4997108;28;20369;-73
2022/03/18 03:55:23;;;;;;;22.33;20.13;;;8.00;99.90;;;;;;4994978;28;20041;-73
2022/03/18 03:57:49;;;;;;;23.45;20.95;;;8.00;99.90;;;;;;4995365;28;20057;-73
2022/03/18 04:00:15;;;;;;;22.75;20.40;;;7.90;99.90;;;;;;4993558;28;20091;-74
2022/03/18 04:02:43;;;;;;;23.88;21.45;;;7.90;99.90;;;;;;4990921;28;20066;-74
2022/03/18 04:05:10;;;;;;;23.60;20.92;;;8.00;99.90;;;;;;4995364;28;20408;-73
2022/03/18 04:07:37;;;;;;;23.58;21.13;;;7.90;99.90;;;;;;4994381;28;20390;-73
2022/03/18 04:10:07;;;;;;;23.30;19.83;;;7.90;99.90;;;;;;4994681;28;20491;-73
2022/03/18 04:12:33;;;;;;;23.33;20.85;;;7.90;99.90;;;;;;4992223;28;20028;-73
2022/03/18 04:15:03;;;;;;;26.15;22.15;;;7.80;99.90;;;;;;5005526;28;20403;-74
2022/03/18 04:17:43;;;;;;;25.98;21.25;;;7.90;99.90;;;;;;4991339;28;20018;-74
2022/03/18 04:20:12;;;;;;;23.73;21.33;;;7.90;99.90;;;;;;5004468;28;20434;-73
2022/03/18 04:22:39;;;;;;;24.02;21.50;;;7.80;99.90;;;;;;4993908;28;20076;-73
2022/03/18 04:25:05;;;;;;;25.17;22.20;;;7.90;99.90;;;;;;4994874;28;20038;-73
2022/03/18 04:27:32;;;;;;;23.15;20.85;;;7.80;99.90;;;;;;4997534;28;20041;-73
2022/03/18 04:29:58;;;;;;;23.50;21.20;;;7.90;99.90;;;;;;4996546;28;20506;-73
2022/03/18 04:32:24;;;;;;;23.10;20.83;;;7.80;99.90;;;;;;4995450;28;20030;-73
2022/03/18 04:34:50;;;;;;;23.75;21.30;;;7.80;99.90;;;;;;5000428;28;20027;-73
2022/03/18 04:37:15;;;;;;;24.23;21.73;;;7.80;99.90;;;;;;4998322;28;20042;-73
2022/03/18 04:39:41;;;;;;;23.52;20.95;;;7.80;99.90;;;;;;4998492;28;20037;-73
2022/03/18 04:42:08;;;;;;;24.02;21.40;;;7.90;99.90;;;;;;4998082;28;20057;-73
2022/03/18 04:44:34;;;;;;;22.85;20.42;;;7.80;99.90;;;;;;4992895;28;20097;-74
2022/03/18 04:46:59;;;;;;;23.58;21.27;;;7.80;99.90;;;;;;4998459;28;20031;-73
2022/03/18 04:49:25;;;;;;;23.90;21.35;;;7.80;99.90;;;;;;4998082;28;20038;-73
2022/03/18 04:51:51;;;;;;;24.30;21.90;;;7.80;99.90;;;;;;4998525;28;20023;-73
2022/03/18 04:54:17;;;;;;;23.77;21.05;;;7.80;99.90;;;;;;4998214;28;20076;-73
2022/03/18 04:59:26;;;;;;;;;;;7.80;99.90;;;;;;4995303;28;20529;-73
2022/03/18 05:01:52;;;;;;;24.20;21.65;;;7.80;99.90;;;;;;5000009;28;19952;-74
2022/03/18 05:04:18;;;;;;;23.98;21.38;;;7.80;99.90;;;;;;4996500;28;20042;-73
2022/03/18 05:06:43;;;;;;;24.45;22.05;;;7.80;99.90;;;;;;4996599;28;20031;-73
2022/03/18 05:09:09;;;;;;;25.67;22.67;;;7.80;99.90;;;;;;4997976;28;20037;-73
2022/03/18 05:11:35;;;;;;;23.90;21.50;;;7.80;99.90;;;;;;4994213;28;20042;-73
2022/03/18 05:14:01;;;;;;;24.27;21.45;;;7.80;99.90;;;;;;4999700;28;20030;-73
2022/03/18 05:16:27;;;;;;;26.67;22.80;;;7.80;99.90;;;;;;4997696;28;20109;-73
2022/03/18 05:18:53;;;;;;;23.83;21.02;;;7.80;99.90;;;;;;4997751;28;20113;-73
2022/03/18 05:21:22;;;;;;;24.33;21.77;;;7.80;99.90;;;;;;4998077;28;20030;-73
2022/03/18 05:23:48;;;;;;;24.30;21.88;;;7.70;99.90;;;;;;4993254;28;20050;-73
2022/03/18 05:26:14;;;;;;;23.27;20.98;;;7.80;99.90;;;;;;4997898;28;20022;-73
2022/03/18 05:28:41;;;;;;;24.40;21.88;;;7.80;99.90;;;;;;4998156;28;20561;-73
2022/03/18 05:31:07;;;;;;;24.92;22.42;;;7.70;99.90;;;;;;4997815;28;20072;-74
2022/03/18 05:33:33;;;;;;;24.40;21.90;;;7.80;99.90;;;;;;4997554;28;20438;-74
2022/03/18 05:35:58;;;;;;;24.77;22.38;;;7.70;99.90;;;;;;4994332;28;20064;-73
2022/03/18 05:38:25;;;;;;;24.02;21.65;;;7.70;99.90;;;;;;4995155;28;20026;-73
2022/03/18 05:40:52;;;;;;;25.52;21.90;;;7.70;99.90;;;;;;4999285;28;20053;-73
2022/03/18 05:43:18;;;;;;;24.42;21.95;;;7.70;99.90;;;;;;4996861;28;20030;-74
2022/03/18 05:45:43;;;;;;;27.00;22.60;;;7.70;99.90;;;;;;4995974;28;20085;-73
2022/03/18 05:48:10;;;;;;;25.40;22.80;;;7.70;99.90;;;;;;4997299;28;20014;-74
2022/03/18 05:50:36;;;;;;;25.40;22.80;;;7.60;99.90;;;;;;4977495;28;20039;-73
2022/03/18 05:53:01;;;;;;;26.27;23.48;;;7.60;99.90;;;;;;4999444;28;20372;-73
2022/03/18 05:58:11;;;;;;;26.10;23.48;;;7.60;99.90;;;;;;4996776;28;20514;-74
2022/03/18 06:00:37;;;;;;;25.70;23.00;;;7.60;99.90;;;;;;4997542;28;20030;-74
2022/03/18 06:03:03;;;;;;;25.17;22.58;;;7.60;99.90;;;;;;4994334;28;20114;-74
2022/03/18 06:05:29;;;;;;;26.02;23.38;;;7.60;99.90;;;;;;4993712;28;20053;-74
2022/03/18 06:11:48;;;;;;;28.35;24.15;;;7.50;99.90;;;;;;4997774;28;20435;-74
2022/03/18 06:13:24;;;;;;;;;;;7.50;99.90;;;;;;4997209;28;20477;-75
2022/03/18 06:15:50;;;;;;;27.38;24.58;;;7.50;99.90;;;;;;4995379;28;19910;-75
2022/03/18 06:18:15;;;;;;;26.15;23.55;;;7.50;99.90;;;;;;4996685;28;20478;-75
2022/03/18 06:20:41;;;;;;;28.80;25.70;;;7.40;99.90;;;;;;4991952;28;20097;-75
2022/03/18 06:23:07;;;;;;;27.05;24.33;;;7.40;99.90;;;;;;4998324;28;20033;-75
2022/03/18 06:25:32;;;;;;;28.08;25.20;;;7.40;99.90;;;;;;4994907;28;20042;-74
2022/03/18 06:27:58;;;;;;;28.25;25.23;;;7.50;99.90;;;;;;4996524;28;20447;-75
2022/03/18 06:30:24;;;;;;;28.50;24.67;;;7.40;99.90;;;;;;4996857;28;20026;-73
2022/03/18 06:32:49;;;;;;;27.33;24.50;;;7.40;99.90;;;;;;4993611;28;20460;-73
2022/03/18 06:35:15;;;;;;;27.15;23.92;;;7.40;99.90;;;;;;4996037;28;20102;-73
2022/03/18 06:37:41;;;;;;;27.60;23.85;;;7.40;99.90;;;;;;4997369;28;20037;-73
2022/03/18 06:40:07;;;;;;;26.90;24.10;;;7.40;99.90;;;;;;4995910;28;20030;-73
2022/03/18 06:42:33;;;;;;;27.58;24.60;;;7.50;99.90;;;;;;4994908;28;20458;-73
2022/03/18 06:44:58;;;;;;;27.15;24.23;;;7.40;99.90;;;;;;4994594;28;20038;-73
2022/03/18 06:47:24;;;;;;;28.58;25.60;;;7.50;99.90;;;;;;4992999;28;20394;-73
2022/03/18 06:49:50;;;;;;;27.92;25.02;;;7.50;99.90;;;;;;4998316;28;20033;-73
2022/03/18 06:52:16;;;;;;;27.90;24.98;;;7.50;99.90;;;;;;4994930;28;20058;-72
2022/03/18 06:54:41;;;;;;;29.40;25.58;;;7.50;99.90;;;;;;4994254;28;20134;-72
2022/03/18 06:57:07;;;;;;;28.13;25.08;;;7.50;99.90;;;;;;4995282;28;20109;-72
2022/03/18 06:59:33;;;;;;;28.63;25.40;;;7.50;99.90;;;;;;4992162;28;20042;-72
2022/03/18 07:01:58;;;;;;;27.83;25.02;;;7.50;99.90;;;;;;4998286;28;20019;-72
2022/03/18 07:04:24;;;;;;;27.80;24.80;;;7.70;99.90;;;;;;4994288;28;20096;-72
2022/03/18 07:06:50;;;;;;;30.05;26.33;;;7.60;99.90;;;;;;4995785;28;20033;-72
2022/03/18 07:09:16;;;;;;;28.00;24.83;;;7.60;99.90;;;;;;4995294;28;20491;-72
2022/03/18 07:11:41;;;;;;;28.25;25.45;;;7.60;99.90;;;;;;4991714;28;20035;-72
2022/03/18 07:14:07;;;;;;;28.48;25.58;;;7.60;99.90;;;;;;4997457;28;20034;-71
2022/03/18 07:19:17;;;;;;;30.02;24.90;;;7.70;99.90;;;;;;4995533;28;20045;-73
2022/03/18 07:21:43;;;;;;;28.55;25.60;;;7.60;99.90;;;;;;4994038;28;20022;-69
2022/03/18 07:24:08;;;;;;;28.88;25.80;;;7.70;99.90;;;;;;4994709;28;20037;-69
2022/03/18 07:26:34;;;;;;;28.52;25.60;;;7.70;99.90;;;;;;4991271;28;20083;-69
2022/03/18 07:29:04;;;;;;;30.83;25.75;;;7.80;99.90;;;;;;4997755;28;20030;-70
2022/03/18 07:31:30;;;;;;;28.88;25.98;;;7.90;99.90;;;;;;4993846;28;20031;-70
2022/03/18 07:33:55;;;;;;;28.48;25.33;;;7.80;99.90;;;;;;4993734;28;20031;-70
2022/03/18 07:36:21;;;;;;;28.58;25.58;;;7.80;99.90;;;;;;4995285;28;20167;-69
2022/03/18 07:38:47;;;;;;;28.95;25.77;;;7.80;99.90;;;;;;4991919;28;20476;-69
2022/03/18 07:41:13;;;;;;;34.67;27.27;;;7.80;99.90;;;;;;4995167;28;20132;-69
2022/03/18 07:43:38;;;;;;;29.00;25.90;;;7.90;99.90;;;;;;4994525;28;20034;-69
2022/03/18 07:46:05;;;;;;;36.55;26.73;;;8.00;99.90;;;;;;4995261;28;20454;-70
2022/03/18 07:48:31;;;;;;;29.48;26.42;;;8.10;99.90;;;;;;4994970;28;20049;-69
2022/03/18 07:50:57;;;;;;;28.75;25.48;;;8.10;99.90;;;;;;4990930;28;20042;-70
2022/03/18 07:53:22;;;;;;;28.85;25.85;;;8.20;99.90;;;;;;5006570;28;20675;-71
2022/03/18 07:55:48;;;;;;;29.48;25.75;;;8.20;99.90;;;;;;4997050;28;20034;-70
2022/03/18 07:58:14;;;;;;;29.08;25.98;;;8.30;99.90;;;;;;4995030;28;20054;-70
2022/03/18 08:00:40;;;;;;;27.85;24.95;;;8.50;99.90;;;;;;4993889;28;20384;-70
2022/03/18 08:03:06;;;;;;;27.75;24.85;;;8.60;99.90;;;;;;4992755;28;20022;-71
2022/03/18 08:05:32;;;;;;;30.10;26.25;;;8.90;99.90;;;;;;4990362;28;20081;-71
2022/03/18 08:07:58;;;;;;;29.15;25.58;;;8.90;99.90;;;;;;4996230;28;20054;-71
2022/03/18 08:10:24;;;;;;;29.70;25.13;;;8.90;99.90;;;;;;4995074;28;20398;-70
2022/03/18 08:12:50;;;;;;;27.67;24.77;;;9.00;99.90;;;;;;4993198;28;20026;-70
2022/03/18 08:15:19;;;;;;;34.50;25.80;;;9.00;99.90;;;;;;4993376;28;20057;-70
2022/03/18 08:17:44;;;;;;;29.92;25.13;;;9.20;99.90;;;;;;4991192;28;20031;-70
2022/03/18 08:20:14;;;;;;;27.15;23.98;;;9.40;99.90;;;;;;4995893;28;20102;-70
2022/03/18 08:22:40;;;;;;;27.00;23.95;;;9.50;99.90;;;;;;4993963;28;20030;-69
2022/03/18 08:25:08;;;;;;;24.05;21.17;;;10.10;99.90;;;;;;4994726;28;20195;-69
2022/03/18 08:27:34;;;;;;;27.05;24.23;;;10.00;99.90;;;;;;4994583;28;20491;-70
2022/03/18 08:30:00;;;;;;;26.20;23.65;;;10.20;99.90;;;;;;4993231;28;20053;-70
2022/03/18 08:32:28;;;;;;;26.60;23.90;;;9.90;99.90;;;;;;4991687;28;20030;-70
2022/03/18 08:34:55;;;;;;;24.60;21.98;;;10.10;99.90;;;;;;4996773;28;20026;-69
2022/03/18 08:37:56;;;;;;;25.30;22.70;;;10.50;99.90;;;;;;4994775;28;20034;-70
2022/03/18 08:40:07;;;;;;;24.50;21.75;;;10.70;99.90;;;;;;4992634;28;20045;-70
2022/03/18 08:42:34;;;;;;;25.20;22.60;;;11.60;99.90;;;;;;4994482;28;20458;-69
2022/03/18 08:45:00;;;;;;;25.40;22.70;;;11.00;99.90;;;;;;4993287;28;20474;-70
2022/03/18 08:47:26;;;;;;;25.50;22.80;;;10.80;99.90;;;;;;4990258;28;20022;-69
2022/03/18 08:49:52;;;;;;;24.25;21.73;;;10.70;99.90;;;;;;4996609;28;20096;-69
2022/03/18 08:52:18;;;;;;;23.23;20.92;;;10.60;99.90;;;;;;4992821;28;20030;-70
2022/03/18 08:54:44;;;;;;;23.63;21.20;;;11.40;99.90;;;;;;4994608;28;20484;-70
2022/03/18 08:57:10;;;;;;;23.10;20.65;;;11.00;99.90;;;;;;4994459;28;20029;-70
2022/03/18 08:59:36;;;;;;;23.65;20.48;;;11.90;99.90;;;;;;4974680;28;20039;-70
2022/03/18 09:02:02;;;;;;;24.58;21.92;;;12.10;99.90;;;;;;4996548;28;20037;-70
2022/03/18 09:04:28;;;;;;;23.02;20.63;;;11.90;99.90;;;;;;4994239;28;20035;-70
2022/03/18 09:06:54;;;;;;;23.40;20.90;;;12.20;99.90;;;;;;4994585;28;20403;-70
2022/03/18 09:09:20;;;;;;;23.13;20.65;;;12.10;99.90;;;;;;4993982;28;20041;-70
2022/03/18 09:11:45;;;;;;;22.60;20.20;;;12.50;99.90;;;;;;4993267;28;20424;-70
2022/03/18 09:14:12;;;;;;;22.40;20.08;;;13.40;99.90;;;;;;4998375;28;20507;-69
2022/03/18 09:16:38;;;;;;;22.25;19.95;;;13.70;99.90;;;;;;4998629;28;20506;-70
2022/03/18 09:19:05;;;;;;;21.60;19.17;;;13.50;99.90;;;;;;4996404;28;20383;-69
2022/03/18 09:21:32;;;;;;;21.98;19.67;;;12.90;99.90;;;;;;4998128;28;20533;-69
2022/03/18 09:23:57;;;;;;;21.27;18.95;;;13.10;99.90;;;;;;4995930;28;20018;-69
2022/03/18 09:26:23;;;;;;;22.90;18.98;;;13.60;99.90;;;;;;4995226;28;20054;-69
2022/03/18 09:28:49;;;;;;;21.90;19.55;;;13.70;99.90;;;;;;5000127;28;20047;-70
2022/03/18 09:31:16;;;;;;;21.45;19.15;;;13.60;99.90;;;;;;4996295;28;20069;-69
2022/03/18 09:33:42;;;;;;;21.75;19.33;;;13.60;99.90;;;;;;4997270;28;20089;-69
2022/03/18 09:36:11;;;;;;;22.08;19.67;;;13.50;99.90;;;;;;4997377;28;20030;-69
2022/03/18 09:38:37;;;;;;;21.23;19.00;;;14.20;99.90;;;;;;4977756;28;20519;-69
2022/03/18 09:41:06;;;;;;;21.92;17.83;;;14.60;99.90;;;;;;4999709;28;20430;-68
2022/03/18 09:43:37;;;;;;;20.75;18.55;;;14.30;99.90;;;;;;4997407;28;20138;-70
2022/03/18 09:46:04;;;;;;;22.25;19.08;;;14.00;99.90;;;;;;4997340;28;20503;-69
2022/03/18 09:48:31;;;;;;;19.80;17.70;;;14.10;99.90;;;;;;4997203;28;20022;-69
2022/03/18 09:50:58;;;;;;;19.80;17.75;;;15.70;99.90;;;;;;4995863;28;20251;-69
2022/03/18 09:53:24;;;;;;;19.30;17.33;;;16.50;99.90;;;;;;4994590;28;20507;-69
2022/03/18 09:55:54;;;;;;;19.40;17.27;;;15.40;99.90;;;;;;4999354;28;20476;-68
2022/03/18 09:58:21;;;;;;;18.95;17.02;;;16.70;99.90;;;;;;4995642;28;20069;-69
2022/03/18 10:00:50;;;;;;;19.35;17.40;;;15.70;99.90;;;;;;4997476;28;20113;-69
2022/03/18 10:03:18;;;;;;;19.77;17.88;;;16.00;99.90;;;;;;4996800;28;20529;-69
2022/03/18 10:06:03;;;;;;;19.05;17.15;;;15.90;99.90;;;;;;4993367;28;20498;-70
2022/03/18 10:08:35;;;;;;;19.35;17.45;;;16.30;99.90;;;;;;4993624;28;20038;-69
2022/03/18 10:11:14;;;;;;;20.90;16.42;;;17.10;99.90;;;;;;4998628;28;20490;-70
2022/03/18 10:14:07;;;;;;;18.30;16.50;;;15.90;99.90;;;;;;4996628;28;20038;-67
2022/03/18 10:16:48;;;;;;;23.05;19.95;;;15.40;99.90;;;;;;4998007;28;20073;-69
2022/03/18 10:19:14;;;;;;;26.08;20.73;;;16.20;99.90;;;;;;4995188;28;20363;-70
2022/03/18 10:21:58;;;;;;;18.30;16.45;;;17.00;99.90;;;;;;4997108;28;20037;-69
2022/03/18 10:24:27;;;;;;;18.58;16.67;;;16.40;99.90;;;;;;4995472;28;20116;-70
2022/03/18 10:27:09;;;;;;;18.58;16.67;;;15.10;99.90;;;;;;4994714;28;20399;-69
2022/03/18 10:29:47;;;;;;;17.55;15.75;;;15.40;99.90;;;;;;4992603;28;20023;-69
2022/03/18 10:32:15;;;;;;;23.05;19.38;;;16.30;99.90;;;;;;5006222;28;20032;-69
2022/03/18 10:37:42;;;;;;;17.27;15.52;;;15.80;99.90;;;;;;4995630;28;20045;-69
2022/03/18 10:40:09;;;;;;;18.88;16.92;;;16.20;99.90;;;;;;4996374;28;20117;-69
2022/03/18 10:42:34;;;;;;;16.67;14.93;;;15.60;99.90;;;;;;4996391;28;20026;-69
2022/03/18 10:45:02;;;;;;;17.55;14.90;;;16.80;99.90;;;;;;4994815;28;20049;-69
2022/03/18 10:48:08;;;;;;;17.42;15.35;;;16.90;99.90;;;;;;4992898;28;20504;-69
2022/03/18 10:50:37;;;;;;;18.75;15.57;;;16.00;99.90;;;;;;5007698;28;20054;-70
2022/03/18 10:53:06;;;;;;;17.52;14.73;;;15.50;99.90;;;;;;4998155;28;20038;-69
2022/03/18 10:55:40;;;;;;;17.00;15.00;;;16.90;99.90;;;;;;4996140;28;20415;-69
2022/03/18 10:58:10;;;;;;;15.85;14.25;;;16.50;99.90;;;;;;4995099;28;20554;-69
2022/03/18 11:00:44;;;;;;;16.95;15.27;;;16.80;99.90;;;;;;4995863;28;20041;-65
2022/03/18 11:03:11;;;;;;;16.67;14.98;;;15.30;99.90;;;;;;4995685;28;20021;-69
2022/03/18 11:05:41;;;;;;;16.95;14.60;;;14.90;99.90;;;;;;4976426;28;20046;-69
2022/03/18 11:08:10;;;;;;;18.70;15.80;;;15.50;99.90;;;;;;5005466;28;20108;-69
2022/03/18 11:13:29;;;;;;;15.40;13.80;;;16.00;99.90;;;;;;4995971;28;20459;-69
2022/03/18 11:15:55;;;;;;;16.85;14.63;;;16.80;99.90;;;;;;4994124;28;20482;-68
2022/03/18 11:18:21;;;;;;;16.05;14.45;;;15.10;99.90;;;;;;4995624;28;20022;-70
2022/03/18 11:20:50;;;;;;;16.42;14.45;;;15.90;99.90;;;;;;4992421;28;20621;-69
2022/03/18 11:23:24;;;;;;;16.67;12.85;;;15.90;99.90;;;;;;4994911;28;20029;-68
2022/03/18 11:25:55;;;;;;;16.02;14.07;;;16.10;99.90;;;;;;4995643;28;20034;-68
2022/03/18 11:28:22;;;;;;;15.60;13.77;;;14.90;99.90;;;;;;4994120;28;20038;-70
2022/03/18 11:31:00;;;;;;;17.63;14.68;;;14.60;99.90;;;;;;4995132;28;20114;-69
2022/03/18 11:33:26;;;;;;;15.05;13.45;;;16.00;99.90;;;;;;4995165;28;20045;-69
2022/03/18 11:35:52;;;;;;;16.92;14.80;;;16.40;99.90;;;;;;4991668;28;20069;-69
2022/03/18 11:38:23;;;;;;;16.42;13.93;;;17.00;99.90;;;;;;4994671;28;20451;-69
2022/03/18 11:40:59;;;;;;;17.60;13.73;;;17.20;99.90;;;;;;4996987;28;20054;-70
2022/03/18 11:43:35;;;;;;;16.45;14.75;;;16.20;99.90;;;;;;4995091;28;20507;-69
2022/03/18 11:46:13;;;;;;;16.27;14.52;;;15.50;99.90;;;;;;4994863;28;20061;-70
2022/03/18 11:48:43;;;;;;;18.00;14.73;;;15.60;99.90;;;;;;4995098;28;20030;-70
2022/03/18 11:51:40;;;;;;;15.68;13.75;;;15.50;99.90;;;;;;4994691;28;20398;-70
2022/03/18 11:54:12;;;;;;;19.58;14.23;;;15.40;99.90;;;;;;4981394;28;20049;-70
2022/03/18 11:56:56;;;;;;;16.13;14.43;;;15.20;99.90;;;;;;4975559;28;20057;-69
2022/03/18 11:59:24;;;;;;;;;;;15.70;99.90;;;;;;5005202;28;20029;-70
2022/03/18 12:01:59;;;;;;;18.95;13.75;;;15.70;99.90;;;;;;4995121;28;20341;-70
2022/03/18 12:04:34;;;;;;;16.48;14.68;;;15.70;99.90;;;;;;4994854;28;20097;-69
2022/03/18 12:07:19;;;;;;;15.85;13.77;;;15.40;99.90;;;;;;4994088;28;20030;-69
2022/03/18 12:10:00;;;;;;;18.58;14.88;;;15.30;99.90;;;;;;4995156;28;20517;-69
2022/03/18 12:12:41;;;;;;;18.33;14.32;;;15.20;99.90;;;;;;4994757;28;20029;-69
2022/03/18 12:15:09;;;;;;;19.23;13.55;;;15.70;99.90;;;;;;4992513;28;20518;-70
2022/03/18 12:17:51;;;;;;;16.50;13.15;;;15.60;99.90;;;;;;4990648;28;20031;-70
2022/03/18 12:20:21;;;;;;;19.10;14.20;;;15.40;99.90;;;;;;5004926;28;20546;-70
2022/03/18 12:22:49;;;;;;;16.95;14.63;;;16.30;99.90;;;;;;4996380;28;20054;-69
2022/03/18 12:25:16;;;;;;;19.33;13.52;;;15.80;99.90;;;;;;4994587;28;20218;-69
2022/03/18 12:27:44;;;;;;;16.30;13.80;;;15.60;99.90;;;;;;4994234;28;20510;-69
2022/03/18 12:30:18;;;;;;;18.10;14.35;;;15.50;99.90;;;;;;4994915;28;20030;-69
2022/03/18 12:32:51;;;;;;;;;;;15.20;99.90;;;;;;4975507;28;20025;-70
2022/03/18 12:35:18;;;;;;;16.52;14.18;;;16.30;99.90;;;;;;4994087;28;20418;-69
2022/03/18 12:37:47;;;;;;;15.25;13.60;;;15.80;99.90;;;;;;4995870;28;20488;-68
2022/03/18 12:40:17;;;;;;;14.80;13.13;;;16.20;99.90;;;;;;4994633;28;20045;-70
2022/03/18 12:42:48;;;;;;;16.13;14.43;;;16.00;99.90;;;;;;4994438;28;20045;-70
2022/03/18 12:45:25;;;;;;;15.65;13.15;;;15.40;99.90;;;;;;4993075;28;20135;-70
2022/03/18 12:47:54;;;;;;;15.25;12.85;;;16.30;99.90;;;;;;4995557;28;20038;-69
2022/03/18 12:50:24;;;;;;;15.52;13.13;;;15.80;99.90;;;;;;4997290;28;20022;-70
2022/03/18 12:52:50;;;;;;;16.00;12.98;;;15.70;99.90;;;;;;4998656;28;20053;-70
2022/03/18 12:55:17;;;;;;;19.20;13.43;;;16.20;99.90;;;;;;4996991;28;20395;-70
2022/03/18 12:57:43;;;;;;;14.45;12.88;;;15.50;99.90;;;;;;4997862;28;20042;-70
2022/03/18 13:00:11;;;;;;;15.82;12.82;;;15.50;99.90;;;;;;4997870;28;20026;-69
2022/03/18 13:02:41;;;;;;;16.30;13.00;;;15.40;99.90;;;;;;4993947;28;20045;-70
2022/03/18 13:05:07;;;;;;;15.73;12.45;;;16.10;99.90;;;;;;5007195;28;20040;-70